createdAt,value
2022-11-15T00:01:11.609Z,4.20
2022-11-15T00:03:57.903Z,4.37
2022-11-15T00:06:46.774Z,4.40
2022-11-15T00:09:35.904Z,4.20
2022-11-15T00:12:22.413Z,3.73
2022-11-15T00:15:09.109Z,3.47
2022-11-15T00:18:08.470Z,4.53
2022-11-15T00:20:54.806Z,4.00
2022-11-15T00:23:41.401Z,4.30
2022-11-15T00:26:27.205Z,4.70
2022-11-15T00:29:18.779Z,4.83
2022-11-15T00:32:05.540Z,3.60
2022-11-15T00:34:51.677Z,4.17
2022-11-15T00:37:37.976Z,3.47
2022-11-15T00:40:26.744Z,5.23
2022-11-15T00:43:16.121Z,3.97
2022-11-15T00:46:05.475Z,4.00
2022-11-15T00:48:54.195Z,4.93
2022-11-15T00:51:40.502Z,3.53
2022-11-15T00:54:26.991Z,3.37
2022-11-15T00:57:13.602Z,4.33
2022-11-15T01:00:20.512Z,4.60
2022-11-15T01:03:07.992Z,4.60
2022-11-15T01:05:54.246Z,3.77
2022-11-15T01:08:42.345Z,4.30
2022-11-15T01:11:31.249Z,3.63
2022-11-15T01:14:21.549Z,3.70
2022-11-15T01:17:13.688Z,4.37
2022-11-15T01:19:59.746Z,4.30
2022-11-15T01:22:50.134Z,3.93
2022-11-15T01:25:39.476Z,3.17
2022-11-15T01:28:26.314Z,4.30
2022-11-15T01:31:17.215Z,3.17
2022-11-15T01:34:03.421Z,3.90
2022-11-15T01:36:49.938Z,3.43
2022-11-15T01:39:38.622Z,3.53
2022-11-15T01:42:24.925Z,4.07
2022-11-15T01:45:27.777Z,3.40
2022-11-15T01:48:17.825Z,4.50
2022-11-15T01:51:08.667Z,3.63
2022-11-15T01:53:58.505Z,4.53
2022-11-15T01:56:49.779Z,3.93
2022-11-15T01:59:42.266Z,3.57
2022-11-15T02:02:37.732Z,4.33
2022-11-15T02:05:25.728Z,4.20
2022-11-15T02:08:21.353Z,3.63
2022-11-15T02:11:10.911Z,4.67
2022-11-15T02:13:59.499Z,3.77
2022-11-15T02:16:45.703Z,4.00
2022-11-15T02:19:34.933Z,3.80
2022-11-15T02:22:31.924Z,3.67
2022-11-15T02:25:37.329Z,4.03
2022-11-15T02:28:42.291Z,3.53
2022-11-15T02:31:37.999Z,3.83
2022-11-15T02:34:30.554Z,3.53
2022-11-15T02:37:29.630Z,4.07
2022-11-15T02:40:22.935Z,3.77
2022-11-15T02:43:30.007Z,4.20
2022-11-15T02:46:23.114Z,3.60
2022-11-15T02:49:11.614Z,4.33
2022-11-15T02:52:01.705Z,3.07
2022-11-15T02:55:07.922Z,3.37
2022-11-15T02:58:03.316Z,4.00
2022-11-15T03:01:00.181Z,5.20
2022-11-15T03:04:10.376Z,3.70
2022-11-15T03:07:04.560Z,3.57
2022-11-15T03:09:58.085Z,4.73
2022-11-15T03:13:01.117Z,3.67
2022-11-15T03:16:02.611Z,4.17
2022-11-15T03:18:59.942Z,3.73
2022-11-15T03:21:49.942Z,3.53
2022-11-15T03:24:39.553Z,3.13
2022-11-15T03:27:27.457Z,4.27
2022-11-15T03:30:14.828Z,3.73
2022-11-15T03:33:01.870Z,4.20
2022-11-15T03:35:51.417Z,3.63
2022-11-15T03:38:37.718Z,4.23
2022-11-15T03:41:37.878Z,4.13
2022-11-15T03:44:30.214Z,4.00
2022-11-15T03:47:29.183Z,3.37
2022-11-15T03:50:17.340Z,3.30
2022-11-15T03:53:15.065Z,4.23
2022-11-15T03:56:01.190Z,3.73
2022-11-15T03:58:47.591Z,4.60
2022-11-15T04:01:33.698Z,3.97
2022-11-15T04:04:19.973Z,3.40
2022-11-15T04:07:05.993Z,3.97
2022-11-15T04:10:04.488Z,4.70
2022-11-15T04:12:50.561Z,4.47
2022-11-15T04:15:37.691Z,3.67
2022-11-15T04:18:25.824Z,3.83
2022-11-15T04:21:30.436Z,4.17
2022-11-15T04:24:17.076Z,3.83
2022-11-15T04:27:03.234Z,3.63
2022-11-15T04:29:50.080Z,3.67
2022-11-15T04:32:36.730Z,3.60
2022-11-15T04:35:22.672Z,4.63
2022-11-15T04:38:09.597Z,3.87
2022-11-15T04:40:55.742Z,3.13
2022-11-15T04:43:42.305Z,4.07
2022-11-15T04:46:28.648Z,3.90
2022-11-15T04:49:15.038Z,3.37
2022-11-15T04:52:02.561Z,3.60
2022-11-15T04:54:49.089Z,4.63
2022-11-15T04:57:55.794Z,3.13
2022-11-15T05:00:43.333Z,3.77
2022-11-15T05:03:48.574Z,3.70
2022-11-15T05:06:34.764Z,4.30
2022-11-15T05:09:24.689Z,3.37
2022-11-15T05:12:12.956Z,3.83
2022-11-15T05:14:58.965Z,3.47
2022-11-15T05:17:50.107Z,3.47
2022-11-15T05:20:36.494Z,3.37
2022-11-15T05:23:22.892Z,3.53
2022-11-15T05:26:14.710Z,3.57
2022-11-15T05:29:11.767Z,2.80
2022-11-15T05:32:00.643Z,2.97
2022-11-15T05:34:47.627Z,3.30
2022-11-15T05:37:38.284Z,2.97
2022-11-15T05:40:25.954Z,3.30
2022-11-15T05:43:15.290Z,3.00
2022-11-15T05:46:06.139Z,2.90
2022-11-15T05:48:57.250Z,3.07
2022-11-15T05:51:49.952Z,4.07
2022-11-15T05:54:47.662Z,3.07
2022-11-15T05:57:36.955Z,3.30
2022-11-15T06:00:26.097Z,2.90
2022-11-15T06:03:13.329Z,2.80
2022-11-15T06:06:00.363Z,2.50
2022-11-15T06:08:49.145Z,3.53
2022-11-15T06:11:38.206Z,3.80
2022-11-15T06:14:51.182Z,2.60
2022-11-15T06:17:45.669Z,2.77
2022-11-15T06:20:42.743Z,2.60
2022-11-15T06:30:07.028Z,2.20
2022-11-15T06:33:02.487Z,2.93
2022-11-15T06:36:24.261Z,2.23
2022-11-15T06:40:08.347Z,2.40
2022-11-15T07:04:12.288Z,2.37
2022-11-15T07:07:06.138Z,2.50
2022-11-15T07:09:53.010Z,3.75
2022-11-15T07:12:43.963Z,2.70
2022-11-15T07:15:36.231Z,2.40
2022-11-15T07:18:39.715Z,2.23
2022-11-15T07:21:27.721Z,2.47
2022-11-15T07:24:13.817Z,1.93
2022-11-15T07:26:59.954Z,1.87
2022-11-15T07:29:47.069Z,2.27
2022-11-15T07:32:33.166Z,2.13
2022-11-15T07:35:22.016Z,1.77
2022-11-15T07:38:09.987Z,2.30
2022-11-15T07:41:00.009Z,1.80
2022-11-15T07:43:46.084Z,1.80
2022-11-15T07:46:35.537Z,2.27
2022-11-15T07:49:21.938Z,1.97
2022-11-15T07:52:09.893Z,1.73
2022-11-15T07:55:00.258Z,1.60
2022-11-15T07:57:48.799Z,1.60
2022-11-15T08:00:38.328Z,1.90
2022-11-15T08:03:24.572Z,1.80
2022-11-15T08:06:10.619Z,2.03
2022-11-15T08:08:58.178Z,1.53
2022-11-15T08:11:44.443Z,1.87
2022-11-15T08:14:30.392Z,1.60
2022-11-15T08:17:20.097Z,1.90
2022-11-15T08:20:06.534Z,1.67
2022-11-15T08:22:55.062Z,1.93
2022-11-15T08:25:41.151Z,1.87
2022-11-15T08:28:27.644Z,1.80
2022-11-15T08:31:17.912Z,1.60
2022-11-15T08:34:04.868Z,1.27
2022-11-15T08:36:51.048Z,2.23
2022-11-15T08:39:37.249Z,1.67
2022-11-15T08:42:23.411Z,1.70
2022-11-15T08:45:30.902Z,1.57
2022-11-15T08:48:17.860Z,1.80
2022-11-15T08:51:07.257Z,1.60
2022-11-15T08:53:53.381Z,1.63
2022-11-15T08:56:39.426Z,1.80
2022-11-15T08:59:27.149Z,2.83
2022-11-15T09:02:15.497Z,2.07
2022-11-15T09:05:03.637Z,1.70
2022-11-15T09:11:05.545Z,2.23
2022-11-15T09:13:53.135Z,2.67
2022-11-15T09:16:39.956Z,1.77
2022-11-15T09:19:26.796Z,1.50
2022-11-15T09:22:13.489Z,1.57
2022-11-15T09:25:00.799Z,2.00
2022-11-15T09:27:47.336Z,1.87
2022-11-15T09:30:33.923Z,2.43
2022-11-15T09:33:20.210Z,1.77
2022-11-15T09:36:11.286Z,1.50
2022-11-15T09:38:59.231Z,1.60
2022-11-15T09:42:09.786Z,1.57
2022-11-15T09:44:59.244Z,1.50
2022-11-15T09:47:57.258Z,1.70
2022-11-15T09:51:00.650Z,1.80
2022-11-15T09:54:09.170Z,1.93
2022-11-15T09:56:26.199Z,1.70
2022-11-15T09:59:17.861Z,1.80
2022-11-15T10:02:01.339Z,1.93
2022-11-15T10:04:35.456Z,1.63
2022-11-15T10:07:12.694Z,2.17
2022-11-15T10:09:47.514Z,1.90
2022-11-15T10:12:17.562Z,1.70
2022-11-15T10:14:54.841Z,1.70
2022-11-15T10:17:27.672Z,1.77
2022-11-15T10:20:09.371Z,1.50
2022-11-15T10:22:39.404Z,1.90
2022-11-15T10:25:13.130Z,1.63
2022-11-15T10:27:42.773Z,1.73
2022-11-15T10:30:16.082Z,1.77
2022-11-15T10:32:47.566Z,2.03
2022-11-15T10:35:23.528Z,1.77
2022-11-15T10:37:54.583Z,1.67
2022-11-15T10:40:26.396Z,2.20
2022-11-15T10:43:12.389Z,1.60
2022-11-15T10:45:39.798Z,1.60
2022-11-15T10:48:16.578Z,1.47
2022-11-15T10:50:47.443Z,1.47
2022-11-15T10:53:23.080Z,1.53
2022-11-15T10:55:51.971Z,1.50
2022-11-15T10:58:29.768Z,1.83
2022-11-15T11:00:57.611Z,1.60
2022-11-15T11:03:30.678Z,1.43
2022-11-15T11:06:13.616Z,1.73
2022-11-15T11:08:43.459Z,1.50
2022-11-15T11:11:11.395Z,1.20
2022-11-15T11:13:40.457Z,1.47
2022-11-15T11:16:19.300Z,1.37
2022-11-15T11:19:05.036Z,1.40
2022-11-15T11:21:55.191Z,1.43
2022-11-15T11:24:28.865Z,1.80
2022-11-15T11:26:57.331Z,1.30
2022-11-15T11:29:35.813Z,1.50
2022-11-15T11:32:23.421Z,1.40
2022-11-15T11:35:00.366Z,1.67
2022-11-15T11:37:42.831Z,1.60
2022-11-15T11:40:30.685Z,1.33
2022-11-15T11:43:06.759Z,1.57
2022-11-15T11:45:38.229Z,1.60
2022-11-15T11:48:24.247Z,1.57
2022-11-15T11:50:54.202Z,1.40
2022-11-15T11:53:35.367Z,1.47
2022-11-15T11:56:18.747Z,1.27
2022-11-15T11:58:50.342Z,1.50
2022-11-15T12:01:37.907Z,1.37
2022-11-15T12:04:20.889Z,1.43
2022-11-15T12:06:56.500Z,1.40
2022-11-15T12:09:44.269Z,1.43
2022-11-15T12:12:30.731Z,1.07
2022-11-15T12:15:03.412Z,1.27
2022-11-15T12:17:33.143Z,1.40
2022-11-15T12:20:17.600Z,1.40
2022-11-15T12:22:51.778Z,1.27
2022-11-15T12:25:30.004Z,1.40
2022-11-15T12:28:22.828Z,1.10
2022-11-15T12:33:44.841Z,1.20
2022-11-15T12:36:35.688Z,1.30
2022-11-15T12:39:12.895Z,1.20
2022-11-15T12:41:41.969Z,1.33
2022-11-15T12:44:14.230Z,1.33
2022-11-15T12:46:53.365Z,1.37
2022-11-15T12:49:33.146Z,1.23
2022-11-15T12:52:03.413Z,1.20
2022-11-15T12:54:37.576Z,1.30
2022-11-15T12:57:05.303Z,1.30
2022-11-15T12:59:53.161Z,1.30
2022-11-15T13:02:25.000Z,1.10
2022-11-15T13:04:56.861Z,1.10
2022-11-15T13:07:43.948Z,1.00
2022-11-15T13:10:36.051Z,1.00
2022-11-15T13:13:12.688Z,0.90
2022-11-15T13:15:57.634Z,1.20
2022-11-15T13:18:28.153Z,0.97
2022-11-15T13:21:01.964Z,1.03
2022-11-15T13:23:30.072Z,0.97
2022-11-15T13:26:13.401Z,1.20
2022-11-15T13:28:47.238Z,0.97
2022-11-15T13:31:26.460Z,1.00
2022-11-15T13:33:54.785Z,1.00
2022-11-15T13:36:23.059Z,1.23
2022-11-15T13:38:58.015Z,0.90
2022-11-15T13:41:27.620Z,1.00
2022-11-15T13:43:58.989Z,1.17
2022-11-15T13:46:29.882Z,1.00
2022-11-15T13:49:05.851Z,1.00
2022-11-15T13:51:49.043Z,0.90
2022-11-15T13:54:20.445Z,1.17
2022-11-15T13:57:14.649Z,1.30
2022-11-15T13:59:59.420Z,1.10
2022-11-15T14:02:29.110Z,1.13
2022-11-15T14:05:16.367Z,1.00
2022-11-15T14:07:54.693Z,1.07
2022-11-15T14:10:33.174Z,1.00
2022-11-15T14:13:02.440Z,0.90
2022-11-15T14:15:33.374Z,1.00
2022-11-15T14:18:01.509Z,0.90
2022-11-15T14:20:33.754Z,1.00
2022-11-15T14:23:05.575Z,0.90
2022-11-15T14:25:37.069Z,0.90
2022-11-15T14:28:23.344Z,1.17
2022-11-15T14:30:52.682Z,0.90
2022-11-15T14:33:20.311Z,1.20
2022-11-15T14:35:48.500Z,1.00
2022-11-15T14:38:18.963Z,0.90
2022-11-15T14:40:46.812Z,0.97
2022-11-15T14:43:15.237Z,1.00
2022-11-15T14:45:44.537Z,1.23
2022-11-15T14:48:12.236Z,1.13
2022-11-15T14:50:40.121Z,0.90
2022-11-15T14:53:17.400Z,0.80
2022-11-15T14:55:45.398Z,0.97
2022-11-15T14:58:15.502Z,1.20
2022-11-15T15:00:46.323Z,1.00
2022-11-15T15:03:14.005Z,1.10
2022-11-15T15:05:42.919Z,1.20
2022-11-15T15:08:11.154Z,1.10
2022-11-15T15:10:43.105Z,0.90
2022-11-15T15:13:24.324Z,1.20
2022-11-15T15:15:54.262Z,0.90
2022-11-15T15:18:24.233Z,0.80
2022-11-15T15:21:07.906Z,0.90
2022-11-15T15:23:36.713Z,1.10
2022-11-15T15:26:04.708Z,1.10
2022-11-15T15:28:34.729Z,1.00
2022-11-15T15:31:05.219Z,0.90
2022-11-15T15:33:32.959Z,0.80
2022-11-15T15:36:00.489Z,0.80
2022-11-15T15:38:28.006Z,0.80
2022-11-15T15:40:57.813Z,1.07
2022-11-15T15:43:27.308Z,0.90
2022-11-15T15:45:54.961Z,0.80
2022-11-15T15:48:24.868Z,0.77
2022-11-15T15:50:54.932Z,1.03
2022-11-15T15:53:22.928Z,0.97
2022-11-15T15:55:52.840Z,1.00
2022-11-15T15:58:24.146Z,0.90
2022-11-15T16:00:54.339Z,0.93
2022-11-15T16:03:24.612Z,1.00
2022-11-15T16:05:52.578Z,1.13
2022-11-15T16:08:20.968Z,1.10
2022-11-15T16:10:48.544Z,0.90
2022-11-15T16:13:16.392Z,0.97
2022-11-15T16:15:46.642Z,0.93
2022-11-15T16:18:17.842Z,0.90
2022-11-15T16:20:57.391Z,0.90
2022-11-15T16:23:25.485Z,1.10
2022-11-15T16:25:54.231Z,0.93
2022-11-15T16:28:21.508Z,1.00
2022-11-15T16:30:53.902Z,1.20
2022-11-15T16:33:26.566Z,0.90
2022-11-15T16:35:54.177Z,0.97
2022-11-15T16:38:21.580Z,0.90
2022-11-15T16:40:49.240Z,0.80
2022-11-15T16:43:17.027Z,1.20
2022-11-15T16:45:45.210Z,0.90
2022-11-15T16:48:22.600Z,0.90
2022-11-15T16:50:50.611Z,1.03
2022-11-15T16:53:19.435Z,1.00
2022-11-15T16:55:48.033Z,0.90
2022-11-15T16:58:15.441Z,0.93
2022-11-15T17:00:43.194Z,1.10
2022-11-15T17:03:10.654Z,0.97
2022-11-15T17:05:42.233Z,1.00
2022-11-15T17:08:09.538Z,1.00
2022-11-15T17:10:40.028Z,1.00
2022-11-15T17:13:07.758Z,1.10
2022-11-15T17:15:37.521Z,0.90
2022-11-15T17:18:05.091Z,1.27
2022-11-15T17:20:33.289Z,1.20
2022-11-15T17:23:12.144Z,1.10
2022-11-15T17:25:39.625Z,0.97
2022-11-15T17:28:07.020Z,1.00
2022-11-15T17:30:35.621Z,1.40
2022-11-15T17:33:03.137Z,1.00
2022-11-15T17:35:30.534Z,1.23
2022-11-15T17:37:57.955Z,0.90
2022-11-15T17:40:25.300Z,1.10
2022-11-15T17:42:53.341Z,1.00
2022-11-15T17:45:20.663Z,1.07
2022-11-15T17:47:48.397Z,1.03
2022-11-15T17:50:17.779Z,1.10
2022-11-15T17:52:47.360Z,0.97
2022-11-15T17:55:14.734Z,1.07
2022-11-15T17:57:44.380Z,0.90
2022-11-15T18:00:14.411Z,1.07
2022-11-15T18:02:41.869Z,1.07
2022-11-15T18:05:09.520Z,1.13
2022-11-15T18:07:37.189Z,1.10
2022-11-15T18:10:07.224Z,1.10
2022-11-15T18:12:34.791Z,1.10
2022-11-15T18:15:02.168Z,0.93
2022-11-15T18:17:29.566Z,1.10
2022-11-15T18:19:57.138Z,1.17
2022-11-15T18:22:28.229Z,1.13
2022-11-15T18:24:55.932Z,0.90
2022-11-15T18:27:23.351Z,1.00
2022-11-15T18:29:50.773Z,0.90
2022-11-15T18:32:20.393Z,0.97
2022-11-15T18:34:47.986Z,1.10
2022-11-15T18:37:15.323Z,1.17
2022-11-15T18:39:49.652Z,1.40
2022-11-15T18:42:20.163Z,1.50
2022-11-15T18:44:50.267Z,1.33
2022-11-15T18:47:20.328Z,1.10
2022-11-15T18:49:48.684Z,1.07
2022-11-15T18:52:17.449Z,0.90
2022-11-15T18:54:51.552Z,1.40
2022-11-15T18:57:19.094Z,1.30
2022-11-15T18:59:46.393Z,1.10
2022-11-15T19:02:13.843Z,1.10
2022-11-15T19:04:43.902Z,1.23
2022-11-15T19:07:11.357Z,1.40
2022-11-15T19:09:41.032Z,1.20
2022-11-15T19:12:08.607Z,1.13
2022-11-15T19:14:35.987Z,1.20
2022-11-15T19:17:06.227Z,1.10
2022-11-15T19:19:44.131Z,1.33
2022-11-15T19:22:17.033Z,1.20
2022-11-15T19:24:45.149Z,1.30
2022-11-15T19:27:12.841Z,1.30
2022-11-15T19:29:41.460Z,1.37
2022-11-15T19:32:09.004Z,0.93
2022-11-15T19:34:41.657Z,1.60
2022-11-15T19:37:09.041Z,1.50
2022-11-15T19:39:40.000Z,1.20
2022-11-15T19:42:08.570Z,1.30
2022-11-15T19:44:36.032Z,1.27
2022-11-15T19:47:10.576Z,1.47
2022-11-15T19:49:37.954Z,1.30
2022-11-15T19:52:05.778Z,1.27
2022-11-15T19:54:33.129Z,1.33
2022-11-15T19:57:00.577Z,1.10
2022-11-15T19:59:28.061Z,1.40
2022-11-15T20:01:55.528Z,1.30
2022-11-15T20:04:23.108Z,1.50
2022-11-15T20:06:50.677Z,1.53
2022-11-15T20:09:18.327Z,1.57
2022-11-15T20:11:45.716Z,1.70
2022-11-15T20:14:13.403Z,1.30
2022-11-15T20:16:41.061Z,1.53
2022-11-15T20:19:08.896Z,1.57
2022-11-15T20:21:41.241Z,1.23
2022-11-15T20:24:08.863Z,1.80
2022-11-15T20:26:36.309Z,1.77
2022-11-15T20:29:03.985Z,1.70
2022-11-15T20:31:31.627Z,1.67
2022-11-15T20:33:59.488Z,1.80
2022-11-15T20:36:27.395Z,1.60
2022-11-15T20:38:59.285Z,1.40
2022-11-15T20:41:27.170Z,1.40
2022-11-15T20:43:54.626Z,1.50
2022-11-15T20:46:22.152Z,1.60
2022-11-15T20:48:49.495Z,1.60
2022-11-15T20:51:18.032Z,2.10
2022-11-15T20:53:46.236Z,2.07
2022-11-15T20:56:14.789Z,1.57
2022-11-15T20:58:45.129Z,1.57
2022-11-15T21:01:14.308Z,1.80
2022-11-15T21:03:42.328Z,1.43
2022-11-15T21:06:09.934Z,1.67
2022-11-15T21:08:56.036Z,1.63
2022-11-15T21:11:44.013Z,1.57
2022-11-15T21:14:11.635Z,1.87
2022-11-15T21:16:40.681Z,1.80
2022-11-15T21:19:08.283Z,1.80
2022-11-15T21:21:36.389Z,1.80
2022-11-15T21:24:04.831Z,1.80
2022-11-15T21:26:35.290Z,1.60
2022-11-15T21:29:03.029Z,2.00
2022-11-15T21:31:32.788Z,2.13
2022-11-15T21:34:02.765Z,2.07
2022-11-15T21:36:30.626Z,1.90
2022-11-15T21:38:58.096Z,1.83
2022-11-15T21:41:25.639Z,1.63
2022-11-15T21:43:53.113Z,2.37
2022-11-15T21:46:20.515Z,1.90
2022-11-15T21:48:49.900Z,1.97
2022-11-15T21:51:17.325Z,1.90
2022-11-15T21:53:44.665Z,1.90
2022-11-15T21:56:12.350Z,2.00
2022-11-15T21:58:39.806Z,2.10
2022-11-15T22:01:27.009Z,2.00
2022-11-15T22:03:55.361Z,1.80
2022-11-15T22:06:22.793Z,2.17
2022-11-15T22:08:50.445Z,1.60
2022-11-15T22:11:17.907Z,1.80
2022-11-15T22:13:45.376Z,2.10
2022-11-15T22:16:13.192Z,2.40
2022-11-15T22:18:40.644Z,1.80
2022-11-15T22:21:12.221Z,1.77
2022-11-15T22:23:39.722Z,1.97
2022-11-15T22:26:07.732Z,1.90
2022-11-15T22:28:35.530Z,1.70
2022-11-15T22:31:05.598Z,1.90
2022-11-15T22:33:34.214Z,1.83
2022-11-15T22:36:02.320Z,2.17
2022-11-15T22:38:33.277Z,2.17
2022-11-15T22:41:02.707Z,1.93
2022-11-15T22:43:30.196Z,2.10
2022-11-15T22:46:00.280Z,1.97
2022-11-15T22:48:29.337Z,2.00
2022-11-15T22:50:57.218Z,2.13
2022-11-15T22:53:25.129Z,2.03
2022-11-15T22:55:59.530Z,1.93
2022-11-15T22:58:28.312Z,1.83
2022-11-15T23:00:57.256Z,1.90
2022-11-15T23:03:25.571Z,2.13
2022-11-15T23:05:53.501Z,2.03
2022-11-15T23:08:23.170Z,2.07
2022-11-15T23:11:09.394Z,1.90
2022-11-15T23:13:39.558Z,1.60
2022-11-15T23:16:23.882Z,2.00
2022-11-15T23:18:52.593Z,2.10
2022-11-15T23:24:25.225Z,2.30
2022-11-15T23:26:57.364Z,1.97
2022-11-15T23:29:26.399Z,1.90
2022-11-15T23:32:13.293Z,2.40
2022-11-15T23:34:42.465Z,2.13
2022-11-15T23:37:10.791Z,1.70
2022-11-15T23:39:38.524Z,1.90
2022-11-15T23:42:19.710Z,2.40
2022-11-15T23:44:49.912Z,1.90
2022-11-15T23:47:18.039Z,1.77
2022-11-15T23:49:45.493Z,2.33
2022-11-15T23:52:15.373Z,2.33
2022-11-15T23:54:42.904Z,1.73
2022-11-15T23:57:12.146Z,2.07
2022-11-15T23:59:45.387Z,2.17
